Time;durP1;ratioP1;P1;durP2;ratioP2;P2;SDS_P1;SDS_P2;PMS_P1;PMS_P2;Temp;Humidity;BMP_temperature;BMP_pressure;BME280_temperature;BME280_humidity;BME280_pressure;Samples;Min_cycle;Max_cycle;Signal;HPM_P1;HPM_P2
2023/08/22 00:01:23;;;;;;;6.70;5.50;;;;;;;23.73;100.00;100558.00;4992182;28;20204;-77
2023/08/22 00:03:48;;;;;;;6.93;5.43;;;;;;;23.72;100.00;100556.28;4992317;28;20732;-77
2023/08/22 00:06:14;;;;;;;7.20;4.90;;;;;;;23.70;100.00;100555.53;4987748;28;20655;-76
2023/08/22 00:08:40;;;;;;;5.10;4.57;;;;;;;23.69;100.00;100554.66;4982132;28;20231;-76
2023/08/22 00:11:05;;;;;;;4.90;4.50;;;;;;;23.69;100.00;100559.13;4979405;28;20256;-77
2023/08/22 00:13:31;;;;;;;8.40;5.13;;;;;;;23.66;100.00;100562.81;4984988;28;20190;-76
2023/08/22 00:16:00;;;;;;;4.50;4.17;;;;;;;23.65;100.00;100565.50;4980396;28;20217;-78
2023/08/22 00:18:26;;;;;;;5.50;5.10;;;;;;;23.61;100.00;100556.94;4985311;28;20343;-78
2023/08/22 00:20:52;;;;;;;5.93;4.83;;;;;;;23.59;100.00;100559.69;4981053;28;20281;-79
2023/08/22 00:23:17;;;;;;;5.60;5.10;;;;;;;23.57;100.00;100560.69;5000231;28;20292;-78
2023/08/22 00:25:42;;;;;;;8.00;5.13;;;;;;;23.53;100.00;100553.88;4999154;28;20702;-78
2023/08/22 00:28:07;;;;;;;5.47;4.97;;;;;;;23.51;100.00;100553.16;4986172;28;20790;-78
2023/08/22 00:30:33;;;;;;;8.33;5.00;;;;;;;23.48;100.00;100550.69;4988128;28;20669;-76
2023/08/22 00:32:58;;;;;;;6.30;5.37;;;;;;;23.47;100.00;100548.97;5005778;28;20635;-77
2023/08/22 00:35:25;;;;;;;6.17;5.00;;;;;;;23.44;100.00;100550.03;4980791;28;20205;-77
2023/08/22 00:37:51;;;;;;;7.73;5.37;;;;;;;23.43;100.00;100545.69;4978416;28;20212;-77
2023/08/22 00:40:16;;;;;;;5.00;4.60;;;;;;;23.42;100.00;100546.63;5000519;28;21389;-77
2023/08/22 00:42:42;;;;;;;4.97;4.43;;;;;;;23.41;100.00;100551.03;5005188;28;20196;-80
2023/08/22 00:45:08;;;;;;;4.90;4.50;;;;;;;23.41;100.00;100558.13;5008330;28;20243;-77
2023/08/22 00:47:33;;;;;;;5.33;4.93;;;;;;;23.38;100.00;100545.91;4981144;28;20201;-75
2023/08/22 00:49:59;;;;;;;4.60;4.20;;;;;;;23.37;100.00;100553.94;4979786;28;20208;-75
2023/08/22 00:52:24;;;;;;;4.40;4.10;;;;;;;23.34;100.00;100546.19;4985284;28;20709;-76
2023/08/22 00:54:49;;;;;;;4.83;4.43;;;;;;;23.31;100.00;100541.97;4983388;28;20279;-76
2023/08/22 00:57:15;;;;;;;4.63;4.23;;;;;;;23.29;100.00;100535.91;4982797;28;20204;-76
2023/08/22 00:59:41;;;;;;;4.83;4.43;;;;;;;23.27;100.00;100546.56;4983428;28;20197;-78
2023/08/22 01:02:09;;;;;;;5.00;4.50;;;;;;;23.25;100.00;100534.38;4981824;28;20184;-78
2023/08/22 01:04:35;;;;;;;5.00;4.60;;;;;;;23.22;100.00;100529.28;4978632;28;20829;-76
2023/08/22 01:07:13;;;;;;;5.50;4.73;;;;;;;23.20;100.00;100536.44;5001247;28;20217;-76
2023/08/22 01:09:47;;;;;;;5.73;4.67;;;;;;;23.16;100.00;100535.72;4983972;28;20740;-77
2023/08/22 01:12:24;;;;;;;6.17;4.33;;;;;;;23.13;100.00;100531.50;4977920;28;20184;-77
2023/08/22 01:15:18;;;;;;;5.30;4.80;;;;;;;23.08;100.00;100544.09;4983161;28;20197;-76
2023/08/22 01:17:43;;;;;;;5.30;4.90;;;;;;;23.06;100.00;100539.84;4974437;28;20212;-76
2023/08/22 01:20:12;;;;;;;4.77;4.47;;;;;;;23.04;100.00;100547.00;4983251;28;20191;-76
2023/08/22 01:22:41;;;;;;;5.90;5.40;;;;;;;23.00;100.00;100546.34;4982278;28;20267;-77
2023/08/22 01:25:08;;;;;;;9.27;5.77;;;;;;;22.98;100.00;100537.66;4979636;28;20796;-78
2023/08/22 01:27:39;;;;;;;8.87;5.93;;;;;;;22.94;100.00;100544.03;4995452;28;20214;-76
2023/08/22 01:30:31;;;;;;;9.40;6.07;;;;;;;22.91;100.00;100552.16;4984660;28;20779;-79
2023/08/22 01:33:04;;;;;;;10.43;5.83;;;;;;;22.88;100.00;100544.41;4982233;28;20184;-77
2023/08/22 01:35:32;;;;;;;6.67;5.57;;;;;;;22.84;100.00;100535.78;4997954;28;20740;-76
2023/08/22 01:37:59;;;;;;;12.57;6.50;;;;;;;22.79;100.00;100530.78;4981126;28;20205;-77
2023/08/22 01:40:24;;;;;;;9.87;6.00;;;;;;;22.74;100.00;100537.25;4977303;28;20243;-77
2023/08/22 01:42:50;;;;;;;6.00;5.40;;;;;;;22.71;100.00;100543.56;4983089;28;20607;-76
2023/08/22 01:45:15;;;;;;;4.80;4.30;;;;;;;22.69;100.00;100532.25;4979943;28;20729;-78
2023/08/22 01:47:41;;;;;;;5.63;4.80;;;;;;;22.68;100.00;100534.03;4985058;28;20193;-77
2023/08/22 01:50:07;;;;;;;5.17;4.80;;;;;;;22.67;100.00;100532.34;4980366;28;20275;-77
2023/08/22 01:52:32;;;;;;;4.63;4.30;;;;;;;22.68;100.00;100533.16;4984201;28;20189;-78
2023/08/22 01:54:58;;;;;;;5.17;4.77;;;;;;;22.68;100.00;100531.41;4983308;28;20569;-77
2023/08/22 01:57:23;;;;;;;5.47;4.97;;;;;;;22.68;100.00;100530.53;4983438;28;20208;-78
2023/08/22 01:59:48;;;;;;;4.70;4.30;;;;;;;22.66;100.00;100525.34;4986204;28;20564;-79
2023/08/22 02:02:13;;;;;;;5.70;5.03;;;;;;;22.66;100.00;100529.75;4983898;28;20196;-76
2023/08/22 02:04:39;;;;;;;4.60;4.30;;;;;;;22.65;100.00;100523.66;4983143;28;20200;-76
2023/08/22 02:07:04;;;;;;;4.80;4.50;;;;;;;22.64;100.00;100524.59;4984461;28;20208;-77
2023/08/22 02:09:30;;;;;;;4.70;4.33;;;;;;;22.63;100.00;100527.28;4983212;28;20903;-76
2023/08/22 02:11:55;;;;;;;5.10;4.60;;;;;;;22.61;100.00;100523.91;4979408;28;20747;-76
2023/08/22 02:14:20;;;;;;;6.00;4.87;;;;;;;22.57;100.00;100528.50;4999339;28;20185;-76
2023/08/22 02:16:45;;;;;;;6.60;5.17;;;;;;;22.56;100.00;100536.50;4998239;28;20201;-77
2023/08/22 02:19:11;;;;;;;11.23;5.90;;;;;;;22.50;100.00;100533.25;4980673;28;20216;-76
2023/08/22 02:21:37;;;;;;;10.33;6.10;;;;;;;22.47;100.00;100528.16;4982834;28;21323;-78
2023/08/22 02:24:02;;;;;;;11.30;6.07;;;;;;;22.44;100.00;100530.97;4984260;28;20657;-78
2023/08/22 02:26:30;;;;;;;12.90;5.97;;;;;;;22.42;100.00;100531.97;4979996;28;20208;-78
2023/08/22 02:28:55;;;;;;;8.60;5.97;;;;;;;22.37;100.00;100533.06;4995454;28;20186;-76
2023/08/22 02:31:21;;;;;;;8.23;5.37;;;;;;;22.34;100.00;100524.44;4979656;28;20195;-77
2023/08/22 02:33:46;;;;;;;7.47;5.20;;;;;;;22.33;100.00;100526.25;4984432;28;21089;-77
2023/08/22 02:36:11;;;;;;;7.43;5.40;;;;;;;22.29;100.00;100524.69;4985415;28;20256;-78
2023/08/22 02:38:37;;;;;;;7.13;5.57;;;;;;;22.27;100.00;100529.22;5003946;28;20204;-79
2023/08/22 02:41:02;;;;;;;6.97;5.40;;;;;;;22.25;100.00;100524.97;4983444;28;20194;-77
2023/08/22 02:43:29;;;;;;;8.57;5.27;;;;;;;22.25;100.00;100519.69;4983533;28;20705;-78
2023/08/22 02:45:54;;;;;;;6.97;5.40;;;;;;;22.25;100.00;100525.78;4980526;28;20212;-76
2023/08/22 02:48:20;;;;;;;8.07;5.50;;;;;;;22.24;100.00;100518.81;5002818;28;20204;-76
2023/08/22 02:50:48;;;;;;;6.83;5.13;;;;;;;22.22;100.00;100507.53;4999687;28;20879;-76
2023/08/22 02:53:15;;;;;;;6.60;5.10;;;;;;;22.20;100.00;100512.03;4984580;28;20193;-76
2023/08/22 02:55:40;;;;;;;7.53;5.30;;;;;;;22.19;100.00;100511.16;4985478;28;20224;-76
2023/08/22 02:58:06;;;;;;;5.77;4.87;;;;;;;22.18;100.00;100513.91;4978612;28;20608;-75
2023/08/22 03:00:33;;;;;;;10.90;5.63;;;;;;;22.17;100.00;100510.41;4976856;28;20198;-76
2023/08/22 03:02:58;;;;;;;7.57;5.30;;;;;;;22.14;100.00;100507.09;4975555;28;20304;-77
2023/08/22 03:05:24;;;;;;;6.53;5.43;;;;;;;22.10;100.00;100509.03;4975361;28;20788;-77
2023/08/22 03:07:49;;;;;;;5.87;5.37;;;;;;;22.08;100.00;100516.19;4979594;28;20185;-76
2023/08/22 03:10:15;;;;;;;9.17;5.87;;;;;;;22.05;100.00;100519.84;4987233;28;20205;-77
2023/08/22 03:12:40;;;;;;;7.67;5.53;;;;;;;22.01;100.00;100513.03;4983238;28;20201;-77
2023/08/22 03:15:06;;;;;;;7.63;5.97;;;;;;;21.98;100.00;100520.25;4988014;28;20255;-77
2023/08/22 03:17:31;;;;;;;5.53;4.90;;;;;;;21.95;100.00;100517.78;4976033;28;20193;-76
2023/08/22 03:19:56;;;;;;;5.47;4.97;;;;;;;21.89;100.00;100511.88;4985622;28;20189;-78
2023/08/22 03:22:23;;;;;;;5.70;5.20;;;;;;;21.87;100.00;100520.81;4999454;28;20991;-78
2023/08/22 03:24:48;;;;;;;8.13;5.60;;;;;;;21.83;100.00;100522.75;4983398;28;20620;-77
2023/08/22 03:27:13;;;;;;;5.93;5.33;;;;;;;21.80;100.00;100522.91;4984662;28;20212;-77
2023/08/22 03:29:38;;;;;;;5.60;5.10;;;;;;;21.77;100.00;100518.66;4983164;28;20186;-76
2023/08/22 03:32:04;;;;;;;6.80;5.87;;;;;;;21.74;100.00;100518.81;4993234;28;20902;-77
2023/08/22 03:34:29;;;;;;;9.43;5.87;;;;;;;21.72;100.00;100525.94;4984763;28;20193;-77
2023/08/22 03:36:55;;;;;;;5.70;5.13;;;;;;;21.71;100.00;100516.34;4983282;28;20217;-76
2023/08/22 03:39:20;;;;;;;7.30;5.57;;;;;;;21.70;100.00;100519.91;4980785;28;20213;-78
2023/08/22 03:41:45;;;;;;;5.60;5.10;;;;;;;21.67;100.00;100520.06;4983141;28;20193;-77
2023/08/22 03:44:10;;;;;;;7.03;5.00;;;;;;;21.64;100.00;100514.94;4986213;28;20208;-78
2023/08/22 03:46:36;;;;;;;7.23;5.50;;;;;;;21.62;100.00;100530.84;4985239;28;20209;-77
2023/08/22 03:49:01;;;;;;;5.60;5.20;;;;;;;21.61;100.00;100525.66;4986430;28;20201;-76
2023/08/22 03:51:26;;;;;;;6.03;5.43;;;;;;;21.59;100.00;100528.31;4981965;28;20200;-77
2023/08/22 03:53:53;;;;;;;8.13;5.77;;;;;;;21.59;100.00;100528.31;4985823;28;20188;-78
2023/08/22 03:56:18;;;;;;;5.87;5.37;;;;;;;21.59;100.00;100535.38;5005637;28;20212;-76
2023/08/22 03:58:44;;;;;;;6.00;5.50;;;;;;;21.58;100.00;100531.03;4989306;28;20208;-77
2023/08/22 04:01:09;;;;;;;5.43;4.93;;;;;;;21.58;100.00;100531.03;4981544;28;20746;-76
2023/08/22 04:03:34;;;;;;;5.90;5.30;;;;;;;21.58;100.00;100523.16;4991514;28;20189;-76
2023/08/22 04:06:00;;;;;;;5.83;5.23;;;;;;;21.58;100.00;100521.34;4985890;28;20205;-77
2023/08/22 04:08:25;;;;;;;6.27;4.50;;;;;;;21.59;100.00;100525.69;5003541;28;20196;-77
2023/08/22 04:10:52;;;;;;;7.30;5.27;;;;;;;21.60;100.00;100522.16;5003593;28;20203;-78
2023/08/22 04:13:18;;;;;;;6.50;5.47;;;;;;;21.64;100.00;100530.75;4988352;28;20191;-77
2023/08/22 04:15:43;;;;;;;6.10;5.40;;;;;;;21.65;100.00;100536.88;4988441;28;20602;-79
2023/08/22 04:18:08;;;;;;;6.13;5.57;;;;;;;21.66;100.00;100533.31;4983352;28;20213;-77
2023/08/22 04:20:33;;;;;;;6.10;5.13;;;;;;;21.65;100.00;100535.09;4983969;28;20324;-78
2023/08/22 04:22:59;;;;;;;5.50;5.07;;;;;;;21.66;100.00;100528.06;4988406;28;20231;-79
2023/08/22 04:25:24;;;;;;;7.97;5.23;;;;;;;21.67;100.00;100527.97;4987961;28;20227;-77
2023/08/22 04:27:49;;;;;;;7.17;5.47;;;;;;;21.69;100.00;100525.25;4992342;28;20181;-78
2023/08/22 04:30:15;;;;;;;7.03;5.83;;;;;;;21.70;100.00;100526.97;4990892;28;20204;-77
2023/08/22 04:32:40;;;;;;;5.63;5.03;;;;;;;21.69;100.00;100523.47;4991405;28;20219;-78
2023/08/22 04:35:06;;;;;;;5.90;5.30;;;;;;;21.69;100.00;100522.63;4986732;28;20709;-77
2023/08/22 04:37:31;;;;;;;5.93;5.00;;;;;;;21.69;100.00;100526.09;4987460;28;20199;-78
2023/08/22 04:39:56;;;;;;;5.23;4.87;;;;;;;21.70;100.00;100535.72;4985473;28;20844;-77
2023/08/22 04:42:23;;;;;;;5.30;4.80;;;;;;;21.70;100.00;100530.44;4984500;28;20712;-77
2023/08/22 04:44:48;;;;;;;5.83;5.33;;;;;;;21.72;100.00;100540.88;4982191;28;20243;-76
2023/08/22 04:47:14;;;;;;;5.97;5.37;;;;;;;21.71;100.00;100537.41;4987439;28;20213;-77
2023/08/22 04:49:39;;;;;;;7.47;5.33;;;;;;;21.69;100.00;100536.63;4982434;28;20189;-77
2023/08/22 04:52:05;;;;;;;6.53;5.80;;;;;;;21.68;100.00;100540.19;4996285;28;20725;-77
2023/08/22 04:54:30;;;;;;;6.00;5.40;;;;;;;21.67;100.00;100538.50;4987473;28;20657;-77
2023/08/22 04:56:55;;;;;;;7.73;5.43;;;;;;;21.67;100.00;100550.81;4984045;28;20217;-76
2023/08/22 04:59:22;;;;;;;5.30;4.90;;;;;;;21.68;100.00;100540.19;4985959;28;20327;-78
2023/08/22 05:01:47;;;;;;;5.73;5.20;;;;;;;21.69;100.00;100541.06;4987648;28;20197;-77
2023/08/22 05:04:12;;;;;;;5.60;5.20;;;;;;;21.72;100.00;100546.16;4985714;28;20201;-77
2023/08/22 05:06:38;;;;;;;5.70;5.20;;;;;;;21.74;100.00;100547.78;4990833;28;20747;-76
2023/08/22 05:09:03;;;;;;;6.40;5.80;;;;;;;21.78;100.00;100553.75;4982921;28;20282;-77
2023/08/22 05:11:29;;;;;;;5.87;5.27;;;;;;;21.82;100.00;100557.94;4997036;28;20631;-76
2023/08/22 05:13:54;;;;;;;7.70;5.77;;;;;;;21.85;100.00;100555.16;4988012;28;20181;-76
2023/08/22 05:16:19;;;;;;;5.27;4.90;;;;;;;21.90;100.00;100550.47;4992642;28;20231;-77
2023/08/22 05:18:45;;;;;;;5.33;4.87;;;;;;;21.97;100.00;100550.16;4984331;28;20288;-77
2023/08/22 05:21:11;;;;;;;5.53;5.13;;;;;;;22.03;100.00;100552.44;4983483;28;20197;-78
2023/08/22 05:23:36;;;;;;;5.87;5.27;;;;;;;22.13;100.00;100556.31;4984699;28;20199;-76
2023/08/22 05:26:02;;;;;;;5.50;5.00;;;;;;;22.24;100.00;100547.81;4986503;28;20226;-77
2023/08/22 05:28:28;;;;;;;6.17;5.57;;;;;;;22.38;100.00;100549.72;4990450;28;20211;-76
2023/08/22 05:30:53;;;;;;;6.00;5.43;;;;;;;22.61;100.00;100551.13;4983304;28;20189;-77
2023/08/22 05:33:18;;;;;;;5.77;5.13;;;;;;;22.91;100.00;100554.78;4981173;28;20193;-76
2023/08/22 05:35:44;;;;;;;8.53;5.57;;;;;;;23.32;100.00;100554.22;4983204;28;20235;-76
2023/08/22 05:38:09;;;;;;;8.00;5.80;;;;;;;23.80;100.00;100551.38;4977473;28;21014;-77
2023/08/22 05:40:34;;;;;;;10.60;6.17;;;;;;;24.32;100.00;100550.00;4982321;28;20285;-76
2023/08/22 05:42:59;;;;;;;7.17;5.30;;;;;;;24.86;100.00;100552.84;4984771;28;20193;-77
2023/08/22 05:45:25;;;;;;;6.10;4.97;;;;;;;25.34;100.00;100550.56;4997801;28;21344;-76
2023/08/22 05:47:50;;;;;;;7.60;5.17;;;;;;;25.86;100.00;100551.47;4986573;28;20212;-76
2023/08/22 05:50:15;;;;;;;6.13;5.30;;;;;;;26.35;100.00;100554.31;4979475;28;20283;-78
2023/08/22 05:52:41;;;;;;;6.43;4.50;;;;;;;26.80;100.00;100555.59;4992443;28;20195;-77
2023/08/22 05:55:07;;;;;;;5.10;4.60;;;;;;;27.21;100.00;100559.63;4982728;28;20665;-76
2023/08/22 05:57:32;;;;;;;5.38;4.60;;;;;;;27.62;100.00;100558.31;4997146;28;20299;-77
2023/08/22 05:59:59;;;;;;;4.65;4.25;;;;;;;27.89;100.00;100559.81;4979507;28;21262;-77
2023/08/22 06:02:24;;;;;;;6.68;5.07;;;;;;;28.14;100.00;100563.22;4983355;28;20193;-76
2023/08/22 06:04:49;;;;;;;5.28;4.60;;;;;;;28.29;100.00;100577.97;4980634;28;20196;-75
2023/08/22 06:07:15;;;;;;;5.43;4.90;;;;;;;28.59;100.00;100572.97;4978940;28;20208;-76
2023/08/22 06:09:40;;;;;;;4.97;4.57;;;;;;;28.85;99.47;100565.56;4976056;28;20225;-78
2023/08/22 06:12:07;;;;;;;5.38;4.72;;;;;;;29.05;98.24;100574.56;4978819;28;20192;-76
2023/08/22 06:14:32;;;;;;;8.02;4.53;;;;;;;29.25;97.06;100579.22;4987688;28;20199;-77
2023/08/22 06:16:58;;;;;;;4.88;4.47;;;;;;;29.45;96.57;100580.22;4983866;28;20209;-77
2023/08/22 06:19:24;;;;;;;5.97;4.60;;;;;;;29.66;95.81;100580.22;4982325;28;20205;-76
2023/08/22 06:21:49;;;;;;;5.03;4.38;;;;;;;29.88;94.25;100578.38;4981463;28;20193;-77
2023/08/22 06:24:14;;;;;;;5.30;4.80;;;;;;;30.02;92.16;100577.22;4986051;28;20259;-79
2023/08/22 06:26:41;;;;;;;6.47;4.47;;;;;;;30.15;92.11;100582.34;5005439;28;20259;-79
2023/08/22 06:29:06;;;;;;;5.50;5.03;;;;;;;30.17;91.92;100575.88;4989527;28;20181;-77
2023/08/22 06:31:31;;;;;;;4.40;4.00;;;;;;;30.20;91.36;100577.41;4980527;28;20269;-77
2023/08/22 06:33:57;;;;;;;3.92;3.60;;;;;;;30.23;90.59;100577.16;4980385;28;20182;-78
2023/08/22 06:36:22;;;;;;;5.70;4.05;;;;;;;30.23;90.31;100580.69;4983431;28;20247;-78
2023/08/22 06:38:47;;;;;;;4.30;3.90;;;;;;;30.15;89.91;100585.00;4991121;28;20208;-76
2023/08/22 06:41:13;;;;;;;4.75;4.00;;;;;;;30.37;90.09;100590.13;4998157;28;20232;-77
2023/08/22 06:43:38;;;;;;;4.38;3.80;;;;;;;30.51;88.71;100588.06;4990148;28;20288;-77
2023/08/22 06:46:03;;;;;;;4.60;4.20;;;;;;;30.56;87.99;100597.38;4982498;28;20625;-77
2023/08/22 06:48:29;;;;;;;4.60;3.95;;;;;;;30.74;88.22;100587.88;4989199;28;20201;-78
2023/08/22 06:50:54;;;;;;;4.90;4.50;;;;;;;30.67;88.13;100588.41;4981298;28;20199;-76
2023/08/22 06:53:20;;;;;;;4.47;4.18;;;;;;;30.68;87.57;100599.94;4981782;28;20217;-76
2023/08/22 06:55:46;;;;;;;4.25;3.95;;;;;;;30.96;86.32;100597.44;4985276;28;20287;-77
2023/08/22 06:58:12;;;;;;;4.63;4.22;;;;;;;30.92;86.70;100594.22;4987995;28;20318;-76
2023/08/22 07:00:37;;;;;;;5.03;4.60;;;;;;;31.02;86.22;100589.72;4998315;28;20261;-76
2023/08/22 07:03:03;;;;;;;4.78;4.38;;;;;;;31.14;85.50;100594.94;4981298;28;20492;-77
2023/08/22 07:05:28;;;;;;;5.22;4.78;;;;;;;31.36;84.27;100595.66;4985923;28;20208;-77
2023/08/22 07:07:53;;;;;;;5.60;5.03;;;;;;;31.44;84.62;100601.97;4987163;28;20189;-79
2023/08/22 07:10:20;;;;;;;4.47;4.10;;;;;;;31.48;83.87;100592.66;4999107;28;20300;-77
2023/08/22 07:12:45;;;;;;;5.25;4.40;;;;;;;31.44;84.09;100596.63;4980780;28;20268;-77
2023/08/22 07:15:11;;;;;;;4.70;4.30;;;;;;;31.48;83.42;100602.53;5004371;28;20622;-77
2023/08/22 07:17:36;;;;;;;4.95;4.55;;;;;;;31.70;83.63;100601.41;4980532;28;20181;-79
2023/08/22 07:20:03;;;;;;;4.47;4.18;;;;;;;31.82;83.08;100598.53;4980983;28;20220;-79
2023/08/22 07:22:28;;;;;;;5.82;4.60;;;;;;;31.80;83.06;100601.38;4976242;28;20220;-76
2023/08/22 07:24:53;;;;;;;5.60;4.18;;;;;;;31.93;82.57;100601.03;4985901;28;20180;-76
2023/08/22 07:27:19;;;;;;;4.85;4.30;;;;;;;32.11;82.71;100606.50;4985841;28;20927;-76
2023/08/22 07:29:44;;;;;;;6.82;4.57;;;;;;;32.22;82.30;100602.75;4980883;28;20547;-76
2023/08/22 07:32:09;;;;;;;4.57;4.07;;;;;;;32.37;81.97;100606.66;4979153;28;20615;-77
2023/08/22 07:34:35;;;;;;;5.63;4.05;;;;;;;32.50;81.05;100600.97;4989569;28;20193;-77
2023/08/22 07:37:01;;;;;;;5.15;4.75;;;;;;;32.59;79.19;100609.94;4979382;28;20213;-78
2023/08/22 07:39:27;;;;;;;4.57;4.18;;;;;;;32.51;79.71;100599.16;4989727;28;20828;-78
2023/08/22 07:41:53;;;;;;;4.55;4.25;;;;;;;32.47;79.24;100603.94;5004958;28;20189;-78
2023/08/22 07:44:19;;;;;;;4.82;4.43;;;;;;;32.49;79.71;100609.16;4981642;28;20662;-78
2023/08/22 07:46:44;;;;;;;5.00;4.60;;;;;;;32.60;80.80;100610.78;4980566;28;20207;-79
2023/08/22 07:49:09;;;;;;;4.63;4.30;;;;;;;32.57;80.56;100608.41;4983048;28;20184;-78
2023/08/22 07:51:36;;;;;;;6.43;4.80;;;;;;;32.58;80.76;100610.09;4992646;28;20193;-78
2023/08/22 07:54:04;;;;;;;5.28;4.85;;;;;;;32.28;81.69;100614.78;4993588;28;20181;-80
2023/08/22 07:56:30;;;;;;;5.15;4.65;;;;;;;32.51;80.20;100607.19;4977477;28;20220;-77
2023/08/22 07:58:55;;;;;;;5.88;5.00;;;;;;;32.60;80.12;100611.63;4991217;28;20204;-77
2023/08/22 08:01:20;;;;;;;6.15;5.13;;;;;;;32.50;80.22;100621.56;4989151;28;20202;-77
2023/08/22 08:03:46;;;;;;;5.90;5.13;;;;;;;32.50;79.61;100618.88;4988597;28;20192;-78
2023/08/22 08:06:11;;;;;;;4.60;4.22;;;;;;;32.39;79.89;100617.25;4985259;28;20211;-77
2023/08/22 08:08:36;;;;;;;4.90;4.40;;;;;;;32.46;79.65;100615.63;4987362;28;20177;-77
2023/08/22 08:11:02;;;;;;;5.40;4.90;;;;;;;32.60;79.38;100610.78;4990653;28;20192;-78
2023/08/22 08:13:27;;;;;;;4.75;4.28;;;;;;;32.47;80.09;100605.78;5005214;28;20208;-79
2023/08/22 08:15:53;;;;;;;4.93;4.43;;;;;;;32.46;81.39;100617.50;4983530;28;20202;-79
2023/08/22 08:18:18;;;;;;;4.95;4.55;;;;;;;32.46;80.59;100612.97;4988196;28;20221;-78
2023/08/22 08:20:43;;;;;;;5.18;4.68;;;;;;;32.22;81.51;100608.13;4997977;28;20209;-79
2023/08/22 08:23:10;;;;;;;4.90;4.57;;;;;;;31.93;82.06;100609.94;4998728;28;20268;-78
2023/08/22 08:25:35;;;;;;;5.35;4.85;;;;;;;31.81;81.93;100610.25;4988223;28;20721;-76
2023/08/22 08:28:01;;;;;;;5.43;5.03;;;;;;;31.65;82.79;100614.31;4983007;28;20197;-76
2023/08/22 08:30:26;;;;;;;5.68;5.18;;;;;;;31.56;82.58;100613.34;4987334;28;20216;-79
2023/08/22 08:32:51;;;;;;;13.43;5.55;;;;;;;31.36;83.61;100609.84;4984474;28;20193;-77
2023/08/22 08:35:17;;;;;;;7.07;6.38;;;;;;;31.26;84.84;100612.53;4985328;28;20232;-78
2023/08/22 08:37:42;;;;;;;6.38;5.78;;;;;;;31.19;84.29;100605.22;4981405;28;20256;-78
2023/08/22 08:40:08;;;;;;;6.80;6.10;;;;;;;30.99;85.15;100605.19;4982661;28;20244;-78
2023/08/22 08:42:37;;;;;;;6.40;5.88;;;;;;;30.86;86.40;100608.13;4980004;28;20205;-76
2023/08/22 08:45:06;;;;;;;7.72;5.53;;;;;;;30.49;85.09;100614.03;4986518;28;20203;-76
2023/08/22 08:47:33;;;;;;;6.53;5.93;;;;;;;30.36;84.60;100617.81;4979897;28;20198;-77
2023/08/22 08:50:06;;;;;;;6.28;5.13;;;;;;;30.38;84.33;100618.53;4982224;28;20754;-75
2023/08/22 08:52:32;;;;;;;6.97;5.55;;;;;;;29.98;81.67;100608.66;4979739;28;20197;-79
2023/08/22 08:54:59;;;;;;;6.18;5.68;;;;;;;30.05;82.61;100612.47;4985369;28;20196;-76
2023/08/22 08:57:24;;;;;;;7.80;5.85;;;;;;;30.00;83.38;100609.38;4985067;28;20673;-78
2023/08/22 08:59:50;;;;;;;6.55;5.82;;;;;;;30.04;83.82;100601.94;4989011;28;20208;-77
2023/08/22 09:02:16;;;;;;;6.40;5.80;;;;;;;30.12;84.27;100612.78;4982752;28;20300;-79
2023/08/22 09:04:42;;;;;;;6.00;5.60;;;;;;;30.11;84.29;100608.44;4986006;28;20189;-78
2023/08/22 09:07:08;;;;;;;5.57;5.13;;;;;;;30.12;84.07;100607.44;4979475;28;20209;-79
2023/08/22 09:09:35;;;;;;;5.35;4.85;;;;;;;30.05;81.85;100606.31;4980803;28;20232;-79
2023/08/22 09:12:04;;;;;;;5.90;5.32;;;;;;;30.06;82.44;100608.00;4978000;28;20192;-79
2023/08/22 09:14:30;;;;;;;5.63;5.13;;;;;;;29.71;82.16;100602.03;4978678;28;20926;-76
2023/08/22 09:16:59;;;;;;;5.63;5.13;;;;;;;29.60;82.45;100612.75;4982663;28;20241;-77
2023/08/22 09:19:24;;;;;;;5.93;4.75;;;;;;;29.52;81.55;100605.38;4981424;28;20248;-76
2023/08/22 09:22:02;;;;;;;5.53;4.40;;;;;;;29.38;79.88;100606.56;4975655;28;20221;-76
2023/08/22 09:24:27;;;;;;;5.03;4.63;;;;;;;29.61;81.22;100609.97;4983403;28;20743;-77
2023/08/22 09:26:52;;;;;;;5.40;5.00;;;;;;;29.55;81.90;100610.47;4983533;28;20205;-76
2023/08/22 09:29:44;;;;;;;5.13;4.72;;;;;;;29.82;82.95;100603.75;4980790;28;20569;-78
2023/08/22 09:32:09;;;;;;;5.13;4.72;;;;;;;29.98;82.20;100606.00;4973529;28;20251;-80
2023/08/22 09:34:35;;;;;;;4.78;4.43;;;;;;;30.10;81.42;100604.94;4982563;28;20184;-77
2023/08/22 09:37:01;;;;;;;5.00;4.50;;;;;;;30.24;80.49;100603.72;4983996;28;20283;-78
2023/08/22 09:39:30;;;;;;;5.20;4.70;;;;;;;30.21;79.77;100604.00;4981122;28;20697;-77
2023/08/22 09:41:57;;;;;;;4.80;4.40;;;;;;;30.31;79.65;100595.16;4985837;28;20275;-77
2023/08/22 09:44:24;;;;;;;6.03;4.45;;;;;;;30.37;80.28;100590.13;4982188;28;20234;-77
2023/08/22 09:46:51;;;;;;;4.55;4.15;;;;;;;30.51;81.50;100594.25;4981123;28;20209;-77
2023/08/22 09:49:17;;;;;;;5.30;4.15;;;;;;;30.37;79.51;100597.31;4986274;28;20245;-78
2023/08/22 09:51:53;;;;;;;4.53;4.13;;;;;;;30.49;80.67;100595.34;4986467;28;20238;-77
2023/08/22 09:54:18;;;;;;;4.55;4.15;;;;;;;30.61;80.17;100599.66;4986399;28;20747;-76
2023/08/22 09:56:45;;;;;;;5.07;4.57;;;;;;;30.73;79.58;100599.53;4976845;28;20209;-79
2023/08/22 09:59:16;;;;;;;4.80;4.40;;;;;;;30.79;79.03;100596.28;4977753;28;20666;-77
2023/08/22 10:01:42;;;;;;;4.85;4.05;;;;;;;30.87;78.15;100596.47;4979953;28;20236;-81
2023/08/22 10:04:08;;;;;;;4.20;3.80;;;;;;;30.99;77.96;100600.69;4980078;28;20619;-79
2023/08/22 10:06:35;;;;;;;4.38;4.03;;;;;;;31.10;78.10;100589.03;4983274;28;20212;-77
2023/08/22 10:09:10;;;;;;;4.72;4.18;;;;;;;31.14;78.20;100582.44;4985285;28;20192;-79
2023/08/22 10:11:49;;;;;;;3.92;3.63;;;;;;;31.22;78.77;100587.09;4977360;28;20205;-77
2023/08/22 10:14:31;;;;;;;4.30;3.95;;;;;;;31.21;79.63;100579.19;4989614;28;20201;-80
2023/08/22 10:16:58;;;;;;;4.50;4.10;;;;;;;31.29;78.95;100590.88;4992676;28;20620;-78
2023/08/22 10:19:24;;;;;;;6.65;4.40;;;;;;;31.21;77.94;100581.88;4982505;28;20213;-77
2023/08/22 10:21:50;;;;;;;5.10;4.60;;;;;;;31.13;77.78;100582.56;5000143;28;20186;-77
2023/08/22 10:24:21;;;;;;;5.40;4.30;;;;;;;31.19;78.75;100584.69;4990134;28;20189;-79
2023/08/22 10:26:57;;;;;;;4.60;4.13;;;;;;;31.29;78.58;100574.81;5003965;28;20201;-80
2023/08/22 10:29:22;;;;;;;6.90;4.97;;;;;;;31.25;78.95;100568.06;4988973;28;20250;-79
2023/08/22 10:31:59;;;;;;;4.88;4.47;;;;;;;31.23;79.77;100570.06;4993141;28;20592;-77
2023/08/22 10:34:25;;;;;;;4.45;4.05;;;;;;;31.45;77.33;100574.25;4983793;28;20207;-80
2023/08/22 10:36:59;;;;;;;4.55;4.15;;;;;;;31.45;77.80;100566.22;5000845;28;20209;-78
2023/08/22 10:39:46;;;;;;;4.45;4.05;;;;;;;31.48;77.75;100565.09;4979269;28;22003;-77
2023/08/22 10:42:17;;;;;;;4.15;3.80;;;;;;;31.40;76.98;100563.13;4982620;28;20279;-78
2023/08/22 10:44:47;;;;;;;4.20;3.80;;;;;;;31.47;77.14;100564.22;5008975;28;20216;-77
2023/08/22 10:47:18;;;;;;;4.82;3.97;;;;;;;31.60;74.90;100558.59;4983797;28;20267;-78
2023/08/22 10:49:47;;;;;;;3.67;3.30;;;;;;;31.60;75.44;100555.09;4982416;28;20681;-78
2023/08/22 10:52:13;;;;;;;4.20;3.80;;;;;;;31.63;76.33;100560.97;4984149;28;20192;-77
2023/08/22 10:55:03;;;;;;;4.38;3.97;;;;;;;31.75;76.14;100560.81;4989425;28;20178;-77
2023/08/22 10:57:53;;;;;;;6.43;4.00;;;;;;;31.67;76.35;100545.47;5002039;28;20189;-78
2023/08/22 11:00:19;;;;;;;5.53;4.60;;;;;;;31.76;77.38;100547.31;4981090;28;20397;-77
2023/08/22 11:02:45;;;;;;;5.68;4.25;;;;;;;31.86;77.26;100547.25;5004631;28;20769;-77
2023/08/22 11:05:12;;;;;;;5.00;4.50;;;;;;;31.86;77.19;100552.63;4989388;28;20189;-79
2023/08/22 11:07:42;;;;;;;4.00;3.65;;;;;;;31.84;76.88;100559.09;4987449;28;20186;-77
2023/08/22 11:10:11;;;;;;;4.22;3.85;;;;;;;31.70;76.39;100549.72;4988007;28;20196;-78
2023/08/22 11:12:36;;;;;;;4.70;3.85;;;;;;;31.78;76.08;100548.00;4984436;28;20219;-80
2023/08/22 11:15:02;;;;;;;4.90;3.90;;;;;;;31.79;75.82;100548.84;4980714;28;20197;-78
2023/08/22 11:17:28;;;;;;;4.00;3.70;;;;;;;31.51;76.47;100543.41;4985779;28;20189;-80
2023/08/22 11:19:54;;;;;;;5.20;4.22;;;;;;;31.42;78.16;100549.59;4982264;28;20213;-78